Etusivu
METAR-TAF:

METAR-TAF

Lentoasemat :

Huntsville, Alabama, Yhdysvallat

Leveyspiiri: 34-51-41N, Pituuspiiri: 086-33-26W, korkeus merenpinnasta: 230 m

Tämänhetkinen sää

Tämä raportti tehtiin 15 minuuttia sitten, kello 03.55 UTC
Tuuli 7 kn etelästä/kaakosta
Lämpötila 13°C
Kosteus 88%
Ilmanpaine 1018 hPa
Näkyvyys: 16.1 km
Pilvistä 3300 ft:n korkeudessa

METAR: KMDQ 180355Z AUTO 16007KT 10SM OVC033 13/11 A3006 RMK A02 T01350108

Aika: 22:10 (04:10 UTC)


TAF: puuttuu

Säähavainnot ja -ennusteet yli 4000 lentoasemalta (METAR- ja TAF-raportit).

Käytössä olevat sääasemat on merkitty karttaan keltaisilla ja punaisilla pisteillä.

Aseta hiiri pisteen päälle nähdäksesi sääaseman nimen.

Klikkaa sitten nähdäksesi säähavainnot ja -ennusteet.

Kartan vaihtaminen: klikkaa mustalla rastilla varustettuja vihreitä pisteitä, niin voit zoomata sisään; viivalla varustettua vihreää pistettä, niin voit zoomata ulos tai vihreitä nuolia, niin pääset viereisille kartoille.


METAR-TAF: